createdAt,value
2023-04-05T00:01:55.423Z,92.00
2023-04-05T00:04:23.569Z,91.80
2023-04-05T00:06:52.396Z,92.10
2023-04-05T00:09:20.121Z,92.30
2023-04-05T00:11:46.517Z,92.30
2023-04-05T00:14:12.704Z,92.20
2023-04-05T00:16:39.542Z,92.70
2023-04-05T00:19:06.884Z,92.70
2023-04-05T00:21:33.888Z,93.20
2023-04-05T00:24:00.158Z,93.20
2023-04-05T00:26:26.646Z,93.40
2023-04-05T00:28:52.796Z,94.50
2023-04-05T00:31:19.534Z,94.00
2023-04-05T00:33:46.808Z,94.30
2023-04-05T00:36:15.291Z,94.90
2023-04-05T00:38:41.783Z,95.10
2023-04-05T00:41:08.139Z,95.30
2023-04-05T00:43:34.831Z,95.70
2023-04-05T00:46:07.288Z,96.20
2023-04-05T00:48:34.410Z,96.10
2023-04-05T00:51:01.514Z,96.30
2023-04-05T00:53:27.798Z,96.60
2023-04-05T00:55:53.915Z,96.90
2023-04-05T00:58:23.405Z,96.60
2023-04-05T01:01:01.192Z,97.10
2023-04-05T01:03:28.580Z,96.90
2023-04-05T01:07:47.900Z,97.10
2023-04-05T01:10:14.641Z,97.70
2023-04-05T01:12:41.021Z,97.60
2023-04-05T01:15:08.481Z,97.90
2023-04-05T01:17:38.447Z,97.90
2023-04-05T01:20:09.549Z,97.80
2023-04-05T01:23:18.624Z,97.70
2023-04-05T01:26:53.406Z,98.20
2023-04-05T01:29:59.954Z,98.40
2023-04-05T01:37:37.063Z,98.60
2023-04-05T01:40:04.469Z,98.60
2023-04-05T01:42:30.896Z,99.60
2023-04-05T01:44:58.450Z,99.90
2023-04-05T01:47:24.747Z,99.90
2023-04-05T01:49:51.980Z,99.70
2023-04-05T01:52:18.165Z,99.90
2023-04-05T01:54:44.314Z,99.90
2023-04-05T01:57:11.054Z,99.90
2023-04-05T01:59:37.621Z,99.90
2023-04-05T02:02:03.784Z,99.90
2023-04-05T02:04:30.042Z,99.90
2023-04-05T02:06:56.801Z,99.90
2023-04-05T02:09:22.975Z,99.90
2023-04-05T02:11:49.865Z,99.90
2023-04-05T02:14:16.663Z,99.90
2023-04-05T02:16:44.626Z,99.90
2023-04-05T02:19:12.775Z,99.90
2023-04-05T02:21:40.102Z,99.90
2023-04-05T02:24:06.858Z,99.90
2023-04-05T02:26:33.559Z,99.90
2023-04-05T02:29:00.153Z,99.90
2023-04-05T02:31:26.293Z,99.90
2023-04-05T02:33:53.743Z,99.90
2023-04-05T02:36:21.411Z,99.90
2023-04-05T02:38:47.695Z,99.90
2023-04-05T02:41:14.190Z,99.90
2023-04-05T02:43:40.461Z,99.90
2023-04-05T02:46:07.653Z,99.90
2023-04-05T02:48:34.055Z,99.90
2023-04-05T02:51:00.451Z,99.90
2023-04-05T02:53:26.634Z,99.90
2023-04-05T02:55:54.727Z,99.90
2023-04-05T02:58:21.007Z,99.90
2023-04-05T03:00:51.871Z,99.90
2023-04-05T03:03:18.733Z,99.90
2023-04-05T03:05:47.007Z,99.90
2023-04-05T03:08:18.408Z,99.90
2023-04-05T03:10:45.814Z,99.90
2023-04-05T03:13:13.071Z,99.90
2023-04-05T03:15:39.784Z,99.90
2023-04-05T03:18:06.758Z,99.90
2023-04-05T03:20:36.404Z,99.90
2023-04-05T03:23:03.145Z,99.90
2023-04-05T03:25:29.275Z,99.90
2023-04-05T03:27:55.605Z,99.90
2023-04-05T03:30:21.867Z,99.90
2023-04-05T03:32:48.023Z,99.90
2023-04-05T03:35:15.945Z,99.90
2023-04-05T03:37:42.251Z,99.90
2023-04-05T03:40:09.857Z,99.90
2023-04-05T03:42:36.140Z,99.90
2023-04-05T03:45:05.427Z,99.90
2023-04-05T03:47:31.657Z,99.90
2023-04-05T03:49:58.030Z,99.90
2023-04-05T03:52:24.222Z,99.90
2023-04-05T03:54:50.911Z,99.90
2023-04-05T03:57:19.211Z,99.90
2023-04-05T03:59:46.628Z,99.90
2023-04-05T04:02:13.465Z,99.90
2023-04-05T04:04:40.493Z,99.90
2023-04-05T04:07:06.666Z,99.90
2023-04-05T04:09:32.853Z,99.90
2023-04-05T04:11:59.030Z,99.90
2023-04-05T04:14:25.462Z,99.90
2023-04-05T04:16:52.081Z,99.90
2023-04-05T04:19:19.505Z,99.90
2023-04-05T04:21:50.841Z,99.90
2023-04-05T04:24:20.397Z,99.90
2023-04-05T04:26:47.842Z,99.90
2023-04-05T04:29:15.634Z,99.90
2023-04-05T04:31:45.558Z,99.90
2023-04-05T04:34:13.967Z,99.90
2023-04-05T04:36:42.379Z,99.90
2023-04-05T04:39:10.194Z,99.90
2023-04-05T04:41:37.676Z,99.90
2023-04-05T04:44:04.761Z,99.90
2023-04-05T04:46:35.273Z,99.90
2023-04-05T04:49:05.938Z,99.90
2023-04-05T04:51:32.606Z,99.90
2023-04-05T04:53:58.802Z,99.90
2023-04-05T04:56:25.453Z,99.90
2023-04-05T04:58:56.653Z,99.90
2023-04-05T05:01:24.484Z,99.80
2023-04-05T05:03:52.540Z,98.80
2023-04-05T05:06:19.206Z,99.90
2023-04-05T05:08:48.436Z,98.60
2023-04-05T05:11:14.918Z,97.50
2023-04-05T05:13:41.689Z,94.50
2023-04-05T05:16:10.995Z,91.90
2023-04-05T05:18:38.621Z,91.80
2023-04-05T05:21:04.938Z,92.30
2023-04-05T05:23:31.332Z,93.60
2023-04-05T05:25:59.030Z,93.60
2023-04-05T05:28:26.600Z,93.90
2023-04-05T05:30:52.747Z,94.20
2023-04-05T05:33:19.265Z,94.50
2023-04-05T05:35:49.266Z,94.40
2023-04-05T05:38:16.278Z,94.50
2023-04-05T05:40:42.641Z,94.30
2023-04-05T05:43:11.017Z,94.60
2023-04-05T05:45:37.144Z,94.30
2023-04-05T05:48:05.735Z,94.40
2023-04-05T05:50:32.391Z,94.30
2023-04-05T05:53:01.331Z,94.30
2023-04-05T05:55:27.852Z,93.70
2023-04-05T05:57:54.001Z,94.10
2023-04-05T06:00:20.467Z,93.70
2023-04-05T06:02:47.383Z,93.50
2023-04-05T06:05:13.918Z,93.70
2023-04-05T06:07:40.254Z,93.20
2023-04-05T06:10:07.328Z,93.00
2023-04-05T06:12:33.831Z,92.50
2023-04-05T06:15:00.940Z,91.90
2023-04-05T06:17:27.840Z,91.20
2023-04-05T06:19:54.212Z,88.40
2023-04-05T06:22:22.365Z,80.10
2023-04-05T06:24:48.527Z,74.50
2023-04-05T06:27:14.805Z,72.30
2023-04-05T06:29:41.070Z,71.80
2023-04-05T06:32:07.602Z,73.60
2023-04-05T06:34:34.080Z,76.60
2023-04-05T06:37:00.372Z,77.80
2023-04-05T06:39:26.942Z,81.00
2023-04-05T06:41:53.272Z,80.80
2023-04-05T06:44:19.585Z,81.20
2023-04-05T06:46:46.151Z,80.60
2023-04-05T06:49:12.912Z,81.10
2023-04-05T06:51:40.631Z,81.20
2023-04-05T06:54:06.894Z,82.00
2023-04-05T06:56:33.147Z,82.60
2023-04-05T06:59:02.468Z,83.20
2023-04-05T07:01:28.873Z,82.60
2023-04-05T07:03:55.725Z,82.70
2023-04-05T07:06:23.409Z,84.10
2023-04-05T07:08:50.275Z,85.20
2023-04-05T07:11:16.507Z,85.10
2023-04-05T07:13:42.881Z,85.90
2023-04-05T07:16:09.254Z,84.90
2023-04-05T07:18:35.902Z,87.90
2023-04-05T07:21:03.313Z,88.30
2023-04-05T07:23:29.905Z,89.50
2023-04-05T07:26:06.163Z,88.50
2023-04-05T07:28:33.364Z,90.10
2023-04-05T07:31:00.877Z,89.60
2023-04-05T07:33:27.501Z,88.50
2023-04-05T07:35:54.825Z,89.60
2023-04-05T07:38:21.203Z,88.20
2023-04-05T07:40:49.361Z,87.70
2023-04-05T07:43:16.237Z,88.90
2023-04-05T07:45:43.130Z,89.10
2023-04-05T07:48:09.546Z,89.70
2023-04-05T07:50:36.114Z,91.10
2023-04-05T07:53:02.614Z,90.00
2023-04-05T07:55:29.015Z,86.60
2023-04-05T07:57:56.650Z,90.30
2023-04-05T08:00:23.054Z,88.10
2023-04-05T08:02:49.520Z,88.00
2023-04-05T08:05:15.881Z,88.80
2023-04-05T08:07:42.580Z,88.90
2023-04-05T08:10:09.938Z,86.80
2023-04-05T08:12:37.674Z,85.20
2023-04-05T08:15:06.721Z,83.50
2023-04-05T08:17:33.122Z,85.10
2023-04-05T08:19:59.405Z,84.00
2023-04-05T08:22:28.391Z,82.90
2023-04-05T08:24:54.685Z,81.90
2023-04-05T08:27:20.908Z,80.20
2023-04-05T08:29:47.529Z,75.00
2023-04-05T08:32:13.730Z,73.10
2023-04-05T08:34:39.959Z,69.40
2023-04-05T08:37:06.222Z,68.20
2023-04-05T08:39:34.859Z,67.70
2023-04-05T08:42:12.004Z,61.60
2023-04-05T08:44:38.372Z,55.70
2023-04-05T08:47:04.868Z,49.60
2023-04-05T08:49:31.196Z,48.70
2023-04-05T08:51:58.455Z,48.30
2023-04-05T08:54:25.063Z,47.50
2023-04-05T08:56:52.069Z,44.80
2023-04-05T08:59:18.648Z,48.10
2023-04-05T09:01:48.479Z,44.50
2023-04-05T09:04:23.565Z,45.00
2023-04-05T09:06:50.494Z,49.10
2023-04-05T09:09:17.676Z,51.80
2023-04-05T09:11:44.027Z,46.80
2023-04-05T09:14:11.158Z,44.10
2023-04-05T09:16:39.992Z,44.20
2023-04-05T09:19:06.684Z,50.40
2023-04-05T09:21:59.427Z,51.60
2023-04-05T09:24:42.585Z,50.70
2023-04-05T09:27:16.131Z,55.20
2023-04-05T09:29:43.790Z,53.00
2023-04-05T09:32:11.025Z,53.50
2023-04-05T09:34:37.618Z,54.00
2023-04-05T09:37:22.375Z,54.40
2023-04-05T09:39:51.407Z,54.60
2023-04-05T09:42:22.273Z,56.10
2023-04-05T09:45:09.096Z,53.50
2023-04-05T09:47:35.413Z,55.30
2023-04-05T09:50:23.906Z,55.80
2023-04-05T09:52:51.830Z,55.90
2023-04-05T09:55:27.801Z,53.20
2023-04-05T09:57:54.201Z,55.20
2023-04-05T10:00:21.400Z,55.20
2023-04-05T10:02:52.281Z,56.00
2023-04-05T10:05:18.770Z,58.00
2023-04-05T10:07:44.995Z,57.30
2023-04-05T10:10:12.985Z,55.80
2023-04-05T10:12:41.105Z,56.00
2023-04-05T10:15:08.216Z,56.00
2023-04-05T10:17:49.247Z,56.20
2023-04-05T10:20:20.008Z,55.90
2023-04-05T10:24:33.070Z,62.10
2023-04-05T10:27:08.639Z,57.90
2023-04-05T10:29:42.827Z,56.80
2023-04-05T10:32:18.647Z,54.70
2023-04-05T10:34:57.443Z,53.40
2023-04-05T10:37:34.710Z,53.30
2023-04-05T10:40:02.575Z,53.50
2023-04-05T10:42:35.746Z,56.30
2023-04-05T10:45:04.074Z,55.40
2023-04-05T10:47:31.795Z,56.60
2023-04-05T10:49:59.972Z,54.50
2023-04-05T10:52:28.101Z,53.00
2023-04-05T10:54:56.175Z,54.50
2023-04-05T10:57:23.571Z,54.40
2023-04-05T10:59:50.075Z,53.20
2023-04-05T11:02:16.720Z,53.00
2023-04-05T11:04:43.261Z,54.10
2023-04-05T11:07:11.677Z,55.00
2023-04-05T11:09:38.435Z,60.10
2023-04-05T11:12:04.729Z,62.40
2023-04-05T11:14:38.678Z,60.70
2023-04-05T11:17:05.871Z,60.10
2023-04-05T11:19:53.339Z,60.50
2023-04-05T11:22:27.538Z,72.00
2023-04-05T11:24:58.481Z,71.90
2023-04-05T11:27:29.110Z,67.20
2023-04-05T11:29:56.455Z,67.60
2023-04-05T11:32:22.996Z,68.00
2023-04-05T11:35:01.633Z,66.40
2023-04-05T11:39:24.138Z,67.20
2023-04-05T11:42:03.986Z,70.00
2023-04-05T11:44:43.628Z,69.10
2023-04-05T11:47:10.775Z,69.30
2023-04-05T11:49:38.984Z,72.00
2023-04-05T11:52:16.472Z,67.90
2023-04-05T11:54:46.414Z,66.60
2023-04-05T11:57:21.753Z,65.90
2023-04-05T11:59:50.798Z,64.90
2023-04-05T12:02:19.239Z,65.60
2023-04-05T12:04:55.759Z,66.00
2023-04-05T12:07:35.995Z,67.30
2023-04-05T12:10:12.985Z,67.00
2023-04-05T12:12:40.489Z,68.70
2023-04-05T12:15:09.237Z,68.50
2023-04-05T12:17:55.018Z,67.60
2023-04-05T12:20:25.495Z,67.90
2023-04-05T12:22:53.312Z,69.30
2023-04-05T12:25:19.880Z,65.40
2023-04-05T12:27:46.876Z,62.80
2023-04-05T12:30:18.023Z,62.30
2023-04-05T12:32:51.483Z,63.80
2023-04-05T12:35:23.923Z,62.30
2023-04-05T12:37:51.300Z,63.90
2023-04-05T12:40:21.785Z,63.40
2023-04-05T12:42:47.932Z,63.00
2023-04-05T12:45:14.086Z,63.60
2023-04-05T12:47:59.261Z,67.60
2023-04-05T12:50:27.712Z,68.20
2023-04-05T12:52:58.459Z,67.00
2023-04-05T12:55:25.435Z,66.10
2023-04-05T12:58:01.342Z,67.80
2023-04-05T13:00:28.476Z,70.60
2023-04-05T13:02:55.939Z,79.10
2023-04-05T13:05:26.403Z,83.50
2023-04-05T13:07:52.602Z,80.00
2023-04-05T13:10:20.055Z,83.50
2023-04-05T13:12:46.926Z,79.20
2023-04-05T13:15:14.562Z,78.80
2023-04-05T13:17:42.087Z,78.50
2023-04-05T13:20:08.937Z,77.90
2023-04-05T13:22:35.929Z,74.30
2023-04-05T13:25:02.358Z,77.60
2023-04-05T13:27:28.672Z,79.80
2023-04-05T13:29:55.099Z,81.60
2023-04-05T13:32:22.502Z,85.60
2023-04-05T13:34:48.714Z,89.20
2023-04-05T13:37:15.688Z,90.90
2023-04-05T13:39:42.897Z,91.80
2023-04-05T13:42:09.090Z,93.20
2023-04-05T13:44:35.412Z,93.60
2023-04-05T13:47:02.373Z,94.90
2023-04-05T13:49:28.630Z,94.60
2023-04-05T13:51:54.773Z,95.60
2023-04-05T13:54:21.567Z,95.60
2023-04-05T13:56:48.117Z,95.20
2023-04-05T13:59:17.225Z,96.20
2023-04-05T14:01:43.860Z,95.60
2023-04-05T14:04:11.031Z,97.20
2023-04-05T14:06:37.602Z,99.10
2023-04-05T14:09:04.405Z,97.40
2023-04-05T14:11:31.803Z,97.50
2023-04-05T14:13:58.019Z,96.20
2023-04-05T14:16:24.499Z,94.50
2023-04-05T14:18:51.112Z,95.50
2023-04-05T14:21:17.603Z,94.40
2023-04-05T14:23:44.087Z,92.70
2023-04-05T14:26:11.557Z,93.20
2023-04-05T14:28:37.851Z,92.40
2023-04-05T14:31:04.297Z,92.50
2023-04-05T14:33:30.594Z,91.90
2023-04-05T14:35:56.839Z,90.00
2023-04-05T14:38:23.509Z,90.80
2023-04-05T14:40:50.979Z,90.20
2023-04-05T14:43:17.301Z,88.80
2023-04-05T14:45:43.698Z,89.10
2023-04-05T14:48:10.934Z,89.10
2023-04-05T14:50:40.375Z,89.40
2023-04-05T14:53:07.643Z,86.70
2023-04-05T14:55:34.099Z,85.70
2023-04-05T14:58:00.537Z,85.60
2023-04-05T15:00:26.943Z,87.80
2023-04-05T15:02:53.325Z,84.00
2023-04-05T15:05:20.056Z,83.10
2023-04-05T15:07:46.274Z,82.10
2023-04-05T15:10:13.577Z,78.50
2023-04-05T15:12:40.013Z,83.30
2023-04-05T15:15:08.053Z,79.50
2023-04-05T15:17:36.400Z,81.80
2023-04-05T15:20:03.066Z,81.90
2023-04-05T15:22:29.320Z,80.80
2023-04-05T15:24:55.744Z,79.60
2023-04-05T15:27:22.126Z,79.60
2023-04-05T15:29:48.607Z,79.20
2023-04-05T15:32:15.572Z,76.80
2023-04-05T15:34:44.286Z,77.30
2023-04-05T15:37:11.208Z,77.80
2023-04-05T15:39:37.607Z,79.50
2023-04-05T15:42:04.347Z,78.00
2023-04-05T15:44:31.003Z,76.60
2023-04-05T15:46:57.206Z,78.40
2023-04-05T15:49:23.513Z,78.20
2023-04-05T15:51:50.244Z,78.00
2023-04-05T15:54:20.913Z,81.00
2023-04-05T15:56:47.542Z,81.70
2023-04-05T15:59:14.245Z,80.90
2023-04-05T16:01:43.878Z,81.30
2023-04-05T16:04:11.321Z,82.60
2023-04-05T16:06:38.521Z,82.90
2023-04-05T16:09:05.249Z,83.60
2023-04-05T16:11:31.900Z,81.90
2023-04-05T16:13:58.611Z,81.80
2023-04-05T16:16:38.195Z,82.50
2023-04-05T16:19:09.990Z,85.20
2023-04-05T16:21:36.251Z,86.00
2023-04-05T16:24:04.899Z,86.40
2023-04-05T16:26:31.985Z,84.70
2023-04-05T16:28:58.379Z,85.60
2023-04-05T16:31:25.105Z,85.70
2023-04-05T16:33:52.826Z,87.00
2023-04-05T16:36:19.089Z,87.20
2023-04-05T16:38:47.296Z,89.80
2023-04-05T16:41:14.061Z,90.00
2023-04-05T16:43:40.583Z,90.50
2023-04-05T16:46:08.104Z,90.70
2023-04-05T16:48:35.282Z,91.80
2023-04-05T16:51:01.539Z,91.90
2023-04-05T16:53:27.799Z,91.90
2023-04-05T16:55:54.069Z,92.50
2023-04-05T16:58:21.025Z,92.80
2023-04-05T17:00:47.544Z,93.10
2023-04-05T17:03:14.602Z,93.60
2023-04-05T17:05:41.569Z,93.80
2023-04-05T17:08:08.946Z,93.90
2023-04-05T17:10:36.156Z,94.30
2023-04-05T17:13:06.485Z,94.40
2023-04-05T17:15:32.771Z,95.20
2023-04-05T17:17:59.247Z,95.30
2023-04-05T17:20:26.657Z,94.80
2023-04-05T17:22:53.141Z,94.70
2023-04-05T17:25:27.118Z,95.00
2023-04-05T17:27:54.372Z,95.30
2023-04-05T17:30:21.555Z,95.80
2023-04-05T17:32:47.917Z,96.30
2023-04-05T17:35:16.013Z,96.80
2023-04-05T17:37:43.014Z,97.80
2023-04-05T17:40:11.660Z,97.60
2023-04-05T17:42:38.414Z,97.20
2023-04-05T17:45:06.542Z,97.50
2023-04-05T17:47:33.334Z,97.70
2023-04-05T17:50:02.320Z,98.90
2023-04-05T17:52:28.644Z,99.10
2023-04-05T17:54:55.114Z,99.50
2023-04-05T17:57:22.574Z,99.70
2023-04-05T17:59:50.584Z,99.80
2023-04-05T18:02:17.386Z,99.80
2023-04-05T18:04:44.058Z,99.90
2023-04-05T18:07:10.324Z,99.90
2023-04-05T18:09:38.309Z,99.90
2023-04-05T18:12:06.185Z,99.90
2023-04-05T18:14:38.524Z,99.90
2023-04-05T18:17:07.098Z,99.90
2023-04-05T18:19:33.480Z,99.90
2023-04-05T18:22:00.162Z,99.90
2023-04-05T18:24:27.415Z,99.90
2023-04-05T18:26:54.961Z,99.90
2023-04-05T18:29:27.483Z,99.90
2023-04-05T18:31:55.260Z,99.90
2023-04-05T18:34:22.652Z,99.90
2023-04-05T18:36:49.588Z,99.90
2023-04-05T18:39:20.344Z,99.90
2023-04-05T18:41:47.168Z,99.90
2023-04-05T18:44:16.286Z,99.90
2023-04-05T18:46:43.585Z,99.90
2023-04-05T18:49:10.916Z,99.90
2023-04-05T18:51:37.696Z,99.90
2023-04-05T18:54:04.347Z,99.90
2023-04-05T18:56:30.870Z,99.90
2023-04-05T18:58:57.791Z,99.90
2023-04-05T19:01:25.503Z,99.90
2023-04-05T19:03:51.761Z,99.90
2023-04-05T19:06:18.267Z,99.90
2023-04-05T19:08:48.471Z,99.90
2023-04-05T19:11:14.731Z,99.90
2023-04-05T19:13:41.454Z,99.90
2023-04-05T19:16:07.890Z,99.90
2023-04-05T19:18:34.950Z,99.90
2023-04-05T19:21:03.940Z,99.90
2023-04-05T19:23:30.687Z,99.90
2023-04-05T19:25:57.723Z,99.90
2023-04-05T19:28:26.684Z,99.90
2023-04-05T19:30:53.307Z,99.90
2023-04-05T19:33:23.292Z,99.90
2023-04-05T19:35:51.067Z,99.90
2023-04-05T19:38:19.908Z,99.90
2023-04-05T19:40:46.974Z,99.90
2023-04-05T19:43:13.439Z,99.90
2023-04-05T19:45:40.737Z,99.90
2023-04-05T19:48:38.875Z,99.90
2023-04-05T19:51:12.701Z,99.90
2023-04-05T19:53:42.653Z,99.90
2023-04-05T19:56:38.311Z,99.90
2023-04-05T20:02:37.933Z,99.90
2023-04-05T20:05:12.647Z,99.90
2023-04-05T20:07:39.645Z,99.90
2023-04-05T20:10:15.249Z,99.90
2023-04-05T20:12:42.167Z,99.90
2023-04-05T20:15:12.958Z,99.90
2023-04-05T20:17:43.309Z,99.90
2023-04-05T20:20:11.093Z,99.90
2023-04-05T20:22:37.598Z,99.90
2023-04-05T20:25:38.747Z,99.90
2023-04-05T20:28:52.713Z,99.90
2023-04-05T20:31:23.468Z,99.90
2023-04-05T20:33:56.658Z,99.90
2023-04-05T20:36:31.885Z,99.90
2023-04-05T20:38:58.186Z,99.90
2023-04-05T20:41:24.980Z,99.90
2023-04-05T20:43:51.464Z,99.90
2023-04-05T20:46:18.645Z,99.90
2023-04-05T20:48:46.190Z,99.90
2023-04-05T20:51:13.301Z,99.90
2023-04-05T20:53:40.261Z,99.90
2023-04-05T20:56:07.282Z,99.90
2023-04-05T20:58:35.410Z,99.90
2023-04-05T21:01:02.694Z,99.90
2023-04-05T21:03:31.507Z,99.90
2023-04-05T21:05:59.009Z,99.90
2023-04-05T21:08:26.219Z,99.90
2023-04-05T21:10:53.981Z,99.90
2023-04-05T21:13:25.900Z,99.90
2023-04-05T21:15:53.350Z,99.90
2023-04-05T21:18:19.849Z,99.90
2023-04-05T21:20:50.466Z,99.90
2023-04-05T21:23:17.028Z,99.90
2023-04-05T21:25:44.053Z,99.90
2023-04-05T21:28:10.692Z,99.90
2023-04-05T21:30:37.077Z,99.90
2023-04-05T21:33:04.316Z,99.90
2023-04-05T21:35:30.794Z,99.90
2023-04-05T21:37:57.317Z,99.90
2023-04-05T21:40:23.539Z,99.90
2023-04-05T21:42:49.807Z,99.90
2023-04-05T21:45:16.166Z,99.90
2023-04-05T21:47:42.549Z,99.90
2023-04-05T21:50:09.691Z,99.90
2023-04-05T21:52:36.537Z,99.90
2023-04-05T21:55:04.756Z,99.90
2023-04-05T21:57:33.401Z,99.90
2023-04-05T22:00:00.960Z,99.90
2023-04-05T22:02:27.310Z,99.90
2023-04-05T22:04:53.637Z,99.90
2023-04-05T22:07:20.872Z,99.90
2023-04-05T22:09:47.142Z,99.90
2023-04-05T22:12:14.572Z,99.90
2023-04-05T22:14:41.167Z,99.90
2023-04-05T22:17:07.838Z,99.90
2023-04-05T22:19:34.109Z,99.90
2023-04-05T22:22:01.715Z,99.90
2023-04-05T22:24:28.017Z,99.90
2023-04-05T22:26:56.430Z,99.90
2023-04-05T22:29:23.127Z,99.90
2023-04-05T22:31:49.937Z,99.90
2023-04-05T22:34:16.500Z,99.90
2023-04-05T22:36:44.003Z,99.90
2023-04-05T22:39:11.745Z,99.90
2023-04-05T22:41:38.171Z,99.90
2023-04-05T22:44:04.894Z,99.90
2023-04-05T22:46:31.221Z,99.90
2023-04-05T22:48:58.115Z,99.90
2023-04-05T22:51:24.532Z,99.90
2023-04-05T22:56:20.918Z,99.90
2023-04-05T22:58:48.666Z,99.90
2023-04-05T23:01:14.964Z,99.90
2023-04-05T23:03:41.251Z,99.90
2023-04-05T23:06:07.682Z,99.90
2023-04-05T23:08:35.091Z,99.90
2023-04-05T23:11:01.315Z,99.90
2023-04-05T23:13:28.687Z,99.90
2023-04-05T23:15:55.591Z,99.90
2023-04-05T23:18:22.171Z,99.90
2023-04-05T23:20:48.784Z,99.90
2023-04-05T23:23:15.382Z,99.90
2023-04-05T23:25:42.056Z,99.90
2023-04-05T23:28:08.275Z,99.90
2023-04-05T23:30:34.593Z,99.90
2023-04-05T23:33:00.829Z,99.90
2023-04-05T23:35:27.560Z,99.90
2023-04-05T23:37:53.953Z,99.90
2023-04-05T23:40:20.208Z,99.90
2023-04-05T23:42:46.442Z,99.90
2023-04-05T23:45:12.693Z,99.90
2023-04-05T23:47:38.913Z,99.90
2023-04-05T23:50:06.711Z,99.90
2023-04-05T23:52:33.412Z,99.90
2023-04-05T23:55:00.997Z,99.90
2023-04-05T23:57:27.798Z,99.90
2023-04-05T23:59:54.976Z,99.90
